Ana Sayfa
METAR-TAF:

METAR-TAF

Havaalanları :

Caracas, Venezuela

Enlem: 10-36N, Boylam: 066-59W, yükseklik: 43 m

Güncel hava durumu gözlemi

Rapor saat 03:00 UTC de 50 dakika önce yapıldı.
Sakin rüzgar
Sıcaklık 26°C
Nem 79%
Basınç 1013 hPa
Görüş mesafesi 10 km veya daha fazla
1600 ft yükseklikte parçalı bulutlu

METAR: SVMI 210300Z 00000KT 9999 SCT016 26/22 Q1013

Saat: 23:50 (03:50 UTC)

Tahmin

Rapor saat 22:00 UTC de 5 saat ve 50 dakika önce yapıldı.
Ayın 21'si saat 00 UTC'den ayın 22'si saat 00 UTC'ye kadar geçerli Tahmin
Rüzgar kuzeydoğudan 4 kt
Görüş mesafesi 10 km veya daha fazla
1600 ft yükseklikte parçalı bulutlu
Geçici
ayın 21'si saat 00 UTC'den ayın 21'si saat 04 UTC'ye kadar
Rüzgar kuzeydan kt
1600 ft yükseklikte az bulutlu

TAF: SVMI 202200Z 2100/2200 05004KT 9999 SCT016 TX33/18Z TN24/08Z TEMPO 2100/2104 00000KT FEW016

4.000'den fazla havaalanı için hava durumu gözlemleri ve tahminleri (METAR ve TAF raporları).

Kullanılabilir istasyonlar harita üzerinde sarı ve kırmızı noktalarla gösterilir.

İstasyonun adını görmek için fareyi noktanın üzerinde gezdirin.

Sonrasında hava gözlem ve tahminlerini görmek için tıklayın.

Haritayı değiştirmek için: yaklaştırmak için siyah artı işaretli yeşil düğmeye ve uzaklaştırmak için de eksi işaretli düğmeye hızla tıklayın; bitişik haritalar için yeşil okları kullanın.


METAR-TAF: